Airfield :
LOGIN :

Register | Disclaimer

   EN    FR    IT 

 










Legend :    VFR   Marginal VFR   IFR   Intensive IFR   Very Intensive IFR
Visi :
Ceiling :
>= 8 km
>= 3000ft
5 to 8 km
1000 to 3000 ft
1500m to 5 km
500 to 1000 ft
800 to 1500m
200 to 500 ft
< 800m
< 200 ft
Symbols :   Thunderstorms  Fog  Heavy snow  Heavy precipitations  Wind > 20 kt
SIGMETs :     Misc.  Thunderstorms  Icing  Turbulence  Mountain Waves  Volcanic Ashes






- Airport Elevation : 459 ft
- IATA code : JYV


EFJY - Jyvaskyla

CURRENT METAR :
  • 270350Z AUTO 11003KT 080V140 CAVOK 11/04 Q1024

EXPIRED METARs :
  • 270320Z AUTO 12002KT CAVOK 09/04 Q1024
  • 270250Z AUTO VRB01KT CAVOK 07/03 Q1025
  • 270220Z AUTO VRB02KT CAVOK 06/03 Q1025
  • 270150Z AUTO 15003KT CAVOK 06/02 Q1025
  • 270120Z AUTO VRB01KT CAVOK 05/02 Q1025

TAF TAF EFJY
Valid from the 27 at 03:00 until the 28 at 03:00 UTC


270230Z 2703/2803 VRB02KT CAVOK
TEMPO 2712/2721 FEW050CB
PROB30
TEMPO 2712/2718 7000 -TSRA BKN010



MET'MAP, your aeronautical weather chart ! - Copyright ORBIFLY December 2007 - Disclaimer

ORBIFLY MET'MAP TEAM :

Programming & Development : Alexandra Zaïnal
Concept & original design : Baudouin d'Aumeries
Assistance for programming : Marc-Olivier Méhu
Technical & hardware support : Manuel Goepfert

Contact : metmap@orbifly.com




SOURCES & CREDITS :

   NOAA